createdAt,value
2019-04-23T00:03:28.390Z,45.60
2019-04-23T00:08:41.598Z,45.60
2019-04-23T00:13:45.454Z,45.60
2019-04-23T00:18:46.421Z,45.60
2019-04-23T00:24:10.043Z,45.60
2019-04-23T00:29:23.620Z,45.60
2019-04-23T00:34:16.358Z,45.60
2019-04-23T00:39:23.451Z,45.60
2019-04-23T00:44:32.209Z,45.60
2019-04-23T00:50:02.098Z,45.60
2019-04-23T00:54:51.896Z,45.60
2019-04-23T01:00:02.274Z,45.70
2019-04-23T01:05:03.634Z,45.60
2019-04-23T01:10:13.958Z,45.60
2019-04-23T01:15:26.176Z,45.60
2019-04-23T01:20:52.844Z,45.60
2019-04-23T01:25:56.532Z,45.60
2019-04-23T01:31:20.219Z,45.40
2019-04-23T01:36:25.303Z,45.40
2019-04-23T01:41:45.735Z,45.40
2019-04-23T01:46:50.984Z,45.50
2019-04-23T01:51:54.880Z,45.40
2019-04-23T01:57:06.279Z,45.40
2019-04-23T02:02:14.305Z,45.40
2019-04-23T02:07:21.776Z,45.40
2019-04-23T02:12:28.862Z,45.40
2019-04-23T02:17:38.324Z,45.30
2019-04-23T02:23:09.822Z,45.30
2019-04-23T02:28:07.578Z,45.40
2019-04-23T02:33:32.042Z,45.30
2019-04-23T02:43:22.275Z,45.30
2019-04-23T02:48:43.851Z,45.30
2019-04-23T02:53:53.227Z,45.30
2019-04-23T02:59:02.445Z,45.30
2019-04-23T03:04:10.030Z,45.30
2019-04-23T03:09:13.009Z,45.40
2019-04-23T03:14:20.734Z,45.20
2019-04-23T03:19:33.395Z,45.20
2019-04-23T03:25:12.921Z,45.70
2019-04-23T03:30:22.338Z,45.20
2019-04-23T03:40:39.160Z,45.30
2019-04-23T03:45:46.552Z,45.20
2019-04-23T03:55:59.551Z,45.20
2019-04-23T04:00:58.869Z,45.20
2019-04-23T04:06:20.839Z,45.20
2019-04-23T04:16:18.254Z,45.30
2019-04-23T04:26:49.256Z,45.10
2019-04-23T04:31:48.491Z,45.20
2019-04-23T04:37:24.296Z,45.10
2019-04-23T04:47:18.030Z,45.10
2019-04-23T04:57:30.703Z,45.10
2019-04-23T05:02:38.903Z,45.10
2019-04-23T05:28:55.657Z,45.10
2019-04-23T05:34:00.035Z,45.20
2019-04-23T05:39:07.648Z,45.10
2019-04-23T05:44:19.255Z,45.10
2019-04-23T05:49:22.509Z,45.20
2019-04-23T05:54:30.820Z,45.30
2019-04-23T05:59:30.279Z,45.40
2019-04-23T06:04:39.009Z,45.40
2019-04-23T06:09:46.842Z,45.50
2019-04-23T06:14:54.489Z,46.40
2019-04-23T06:20:04.357Z,45.70
2019-04-23T06:25:21.527Z,45.80
2019-04-23T06:30:19.303Z,46.00
2019-04-23T06:35:23.836Z,45.00
2019-04-23T06:45:37.828Z,42.50
2019-04-23T06:50:54.536Z,44.20
2019-04-23T06:56:02.139Z,44.60
2019-04-23T07:11:35.562Z,45.40
2019-04-23T07:16:27.738Z,45.40
2019-04-23T07:21:51.319Z,45.40
2019-04-23T07:26:38.808Z,45.80
2019-04-23T07:36:58.870Z,45.50
2019-04-23T07:42:21.078Z,45.40
2019-04-23T07:47:42.275Z,45.50
2019-04-23T07:53:01.796Z,45.40
2019-04-23T07:58:06.497Z,45.60
2019-04-23T08:03:17.358Z,45.60
2019-04-23T08:08:12.186Z,45.50
2019-04-23T08:13:31.577Z,45.60
2019-04-23T08:18:41.885Z,45.40
2019-04-23T08:24:11.940Z,45.60
2019-04-23T08:29:25.103Z,45.40
2019-04-23T08:50:27.676Z,44.70
2019-04-23T08:55:41.401Z,44.80
2019-04-23T09:00:45.537Z,45.00
2019-04-23T09:16:09.022Z,45.10
2019-04-23T09:21:16.031Z,45.10
2019-04-23T09:26:15.711Z,44.60
2019-04-23T09:36:59.096Z,42.90
2019-04-23T09:42:28.220Z,43.40
2019-04-23T09:47:50.723Z,43.90
2019-04-23T09:53:08.483Z,44.20
2019-04-23T09:58:02.862Z,44.20
2019-04-23T10:03:01.556Z,44.50
2019-04-23T10:07:58.662Z,44.70
2019-04-23T10:12:58.009Z,44.90
2019-04-23T10:18:04.622Z,45.10
2019-04-23T10:23:12.395Z,45.20
2019-04-23T10:28:31.654Z,43.20
2019-04-23T10:33:38.152Z,44.90
2019-04-23T10:38:51.305Z,44.90
2019-04-23T10:43:58.594Z,45.20
2019-04-23T10:54:54.214Z,45.20
2019-04-23T11:00:07.207Z,45.00
2019-04-23T11:05:20.146Z,45.00
2019-04-23T11:10:17.447Z,45.10
2019-04-23T11:25:59.111Z,45.40
2019-04-23T11:31:03.378Z,45.40
2019-04-23T11:41:21.467Z,45.30
2019-04-23T11:46:48.474Z,45.30
2019-04-23T11:51:47.526Z,45.60
2019-04-23T11:57:13.315Z,45.80
2019-04-23T12:02:18.602Z,45.70
2019-04-23T12:07:32.865Z,45.70
2019-04-23T12:12:34.203Z,45.60
2019-04-23T12:17:49.181Z,45.80
2019-04-23T12:23:06.392Z,45.80
2019-04-23T12:27:59.737Z,45.70
2019-04-23T12:33:11.696Z,45.60
2019-04-23T12:38:23.211Z,45.60
2019-04-23T12:53:45.618Z,45.60
2019-04-23T12:58:41.454Z,45.60
2019-04-23T13:03:53.200Z,45.60
2019-04-23T13:09:19.335Z,45.60
2019-04-23T13:14:20.389Z,45.60
2019-04-23T13:19:33.915Z,45.60
2019-04-23T13:24:51.548Z,45.70
2019-04-23T13:30:02.054Z,45.70
2019-04-23T13:35:18.597Z,45.80
2019-04-23T13:40:09.621Z,45.80
2019-04-23T13:45:33.293Z,45.80
2019-04-23T13:50:37.501Z,45.80
2019-04-23T13:55:26.698Z,45.80
2019-04-23T14:00:58.192Z,45.90
2019-04-23T14:06:18.052Z,45.90
2019-04-23T14:11:23.595Z,45.90
2019-04-23T14:21:35.243Z,46.00
2019-04-23T14:26:39.572Z,46.00
2019-04-23T14:31:53.328Z,46.00
2019-04-23T14:37:15.663Z,46.00
2019-04-23T14:42:20.512Z,46.10
2019-04-23T14:47:22.328Z,45.20
2019-04-23T14:52:21.718Z,44.50
2019-04-23T14:57:36.480Z,44.80
2019-04-23T15:02:40.637Z,45.10
2019-04-23T15:07:42.647Z,45.70
2019-04-23T15:12:50.591Z,45.70
2019-04-23T15:17:58.056Z,46.00
2019-04-23T15:23:30.125Z,45.90
2019-04-23T15:28:07.528Z,46.30
2019-04-23T15:43:30.435Z,46.40
2019-04-23T15:48:46.571Z,46.20
2019-04-23T15:53:53.186Z,46.20
2019-04-23T16:03:35.991Z,46.30
2019-04-23T16:14:22.451Z,46.90
2019-04-23T16:19:57.846Z,46.40
2019-04-23T16:30:14.230Z,46.40
2019-04-23T16:35:31.053Z,46.50
2019-04-23T16:45:31.898Z,46.30
2019-04-23T16:51:00.798Z,46.40
2019-04-23T17:06:24.740Z,46.40
2019-04-23T17:11:15.385Z,46.50
2019-04-23T17:21:25.169Z,46.40
2019-04-23T17:26:29.535Z,46.40
2019-04-23T17:37:07.584Z,46.30
2019-04-23T17:42:30.949Z,46.50
2019-04-23T17:52:58.306Z,46.50
2019-04-23T17:57:59.043Z,46.50
2019-04-23T18:03:06.039Z,46.50
2019-04-23T18:08:11.271Z,46.50
2019-04-23T18:13:22.995Z,46.50
2019-04-23T18:18:39.467Z,46.60
2019-04-23T18:23:41.324Z,46.60
2019-04-23T18:28:48.215Z,46.60
2019-04-23T18:39:12.342Z,46.60
2019-04-23T18:44:24.835Z,46.60
2019-04-23T18:49:35.093Z,46.50
2019-04-23T18:54:35.610Z,46.50
2019-04-23T18:59:50.934Z,46.50
2019-04-23T19:10:37.295Z,46.60
2019-04-23T19:15:48.787Z,46.70
2019-04-23T19:21:03.810Z,46.90
2019-04-23T19:31:33.288Z,46.80
2019-04-23T19:36:52.681Z,46.80
2019-04-23T19:47:03.250Z,46.80
2019-04-23T20:02:20.016Z,46.80
2019-04-23T20:28:02.056Z,47.00
2019-04-23T20:38:33.672Z,45.60
2019-04-23T20:43:42.371Z,42.50
2019-04-23T20:48:48.297Z,42.10
2019-04-23T20:53:59.276Z,41.20
2019-04-23T20:59:01.495Z,36.70
2019-04-23T21:04:17.625Z,36.10
2019-04-23T21:14:41.563Z,35.70
2019-04-23T21:19:33.623Z,35.90
2019-04-23T21:24:42.932Z,35.50
2019-04-23T21:29:57.020Z,35.60
2019-04-23T21:45:28.679Z,36.00
2019-04-23T21:50:36.750Z,35.60
2019-04-23T21:55:51.928Z,35.50
2019-04-23T22:00:59.308Z,35.30
2019-04-23T22:06:01.856Z,35.60
2019-04-23T22:11:26.837Z,35.40
2019-04-23T22:16:15.052Z,35.30
2019-04-23T22:21:19.630Z,35.30
2019-04-23T22:26:28.839Z,35.30
2019-04-23T22:31:38.757Z,35.20
2019-04-23T22:36:39.361Z,35.00
2019-04-23T22:41:54.981Z,35.00
2019-04-23T22:46:57.789Z,34.70
2019-04-23T22:52:16.410Z,34.80
2019-04-23T23:02:59.445Z,35.10
2019-04-23T23:08:03.014Z,34.80
2019-04-23T23:18:14.628Z,34.80
2019-04-23T23:28:31.058Z,34.70
2019-04-23T23:33:45.546Z,34.60
2019-04-23T23:38:57.322Z,34.80
2019-04-23T23:44:09.497Z,34.80
2019-04-23T23:48:58.472Z,34.60
2019-04-23T23:59:12.824Z,34.40
